createdAt,value
2023-01-15T00:00:57.309Z,20.40
2023-01-15T00:03:23.739Z,20.39
2023-01-15T00:05:50.117Z,20.36
2023-01-15T00:08:16.452Z,20.38
2023-01-15T00:10:42.791Z,20.35
2023-01-15T00:13:09.131Z,20.36
2023-01-15T00:15:36.187Z,20.34
2023-01-15T00:18:02.572Z,20.34
2023-01-15T00:20:28.920Z,20.33
2023-01-15T00:22:55.251Z,20.33
2023-01-15T00:25:40.577Z,20.32
2023-01-15T00:28:09.631Z,20.31
2023-01-15T00:30:39.642Z,20.29
2023-01-15T00:33:07.050Z,20.30
2023-01-15T00:35:33.391Z,20.29
2023-01-15T00:38:00.192Z,20.28
2023-01-15T00:40:26.529Z,20.28
2023-01-15T00:42:54.292Z,20.29
2023-01-15T00:45:21.101Z,20.28
2023-01-15T00:47:48.956Z,20.32
2023-01-15T00:50:15.295Z,20.36
2023-01-15T00:52:41.713Z,20.39
2023-01-15T00:55:08.122Z,20.39
2023-01-15T00:57:34.446Z,20.37
2023-01-15T01:00:01.109Z,20.40
2023-01-15T01:02:27.499Z,20.34
2023-01-15T01:04:53.846Z,20.29
2023-01-15T01:07:20.220Z,20.28
2023-01-15T01:09:46.560Z,20.27
2023-01-15T01:12:12.939Z,20.25
2023-01-15T01:14:39.279Z,20.25
2023-01-15T01:17:05.625Z,20.24
2023-01-15T01:19:32.333Z,20.24
2023-01-15T01:21:58.659Z,20.26
2023-01-15T01:24:24.994Z,20.23
2023-01-15T01:26:53.450Z,20.26
2023-01-15T01:29:21.495Z,20.27
2023-01-15T01:31:48.013Z,20.26
2023-01-15T01:34:14.385Z,20.24
2023-01-15T01:36:41.718Z,20.22
2023-01-15T01:39:09.655Z,20.20
2023-01-15T01:41:36.013Z,20.21
2023-01-15T01:44:03.250Z,20.18
2023-01-15T01:46:30.857Z,20.18
2023-01-15T01:49:01.710Z,20.17
2023-01-15T01:51:28.890Z,20.19
2023-01-15T01:53:55.614Z,20.17
2023-01-15T01:56:23.178Z,20.17
2023-01-15T01:58:50.890Z,20.16
2023-01-15T02:01:17.357Z,20.15
2023-01-15T02:03:43.777Z,20.15
2023-01-15T02:06:10.339Z,20.16
2023-01-15T02:08:39.352Z,20.16
2023-01-15T02:11:06.026Z,20.15
2023-01-15T02:13:40.112Z,20.14
2023-01-15T02:16:08.418Z,20.14
2023-01-15T02:18:43.562Z,20.14
2023-01-15T02:21:12.899Z,20.14
2023-01-15T02:23:50.197Z,20.13
2023-01-15T02:26:19.650Z,20.13
2023-01-15T02:28:48.432Z,20.11
2023-01-15T02:31:16.585Z,20.12
2023-01-15T02:33:47.894Z,20.11
2023-01-15T02:36:15.831Z,20.09
2023-01-15T02:38:43.859Z,20.11
2023-01-15T02:41:17.545Z,20.07
2023-01-15T02:43:46.734Z,20.09
2023-01-15T02:46:13.232Z,20.08
2023-01-15T02:48:40.147Z,20.08
2023-01-15T02:51:08.789Z,20.08
2023-01-15T02:53:35.556Z,20.08
2023-01-15T02:56:03.311Z,20.07
2023-01-15T02:58:35.662Z,20.07
2023-01-15T03:01:05.265Z,20.07
2023-01-15T03:03:36.290Z,20.06
2023-01-15T03:06:08.228Z,20.07
2023-01-15T03:08:34.774Z,20.06
2023-01-15T03:11:14.440Z,20.04
2023-01-15T03:14:05.764Z,20.05
2023-01-15T03:16:40.229Z,20.04
2023-01-15T03:19:13.651Z,20.04
2023-01-15T03:21:44.045Z,20.05
2023-01-15T03:24:10.404Z,20.03
2023-01-15T03:26:37.393Z,20.04
2023-01-15T03:29:03.770Z,20.02
2023-01-15T03:31:30.132Z,20.01
2023-01-15T03:33:57.814Z,20.03
2023-01-15T03:36:24.554Z,20.04
2023-01-15T03:38:51.050Z,20.04
2023-01-15T03:42:00.044Z,20.04
2023-01-15T03:44:47.806Z,20.05
2023-01-15T03:47:24.965Z,20.06
2023-01-15T03:49:59.557Z,20.08
2023-01-15T03:52:39.468Z,20.11
2023-01-15T03:55:09.616Z,20.11
2023-01-15T03:57:40.767Z,20.13
2023-01-15T04:00:08.689Z,20.12
2023-01-15T04:02:41.816Z,20.14
2023-01-15T04:05:08.606Z,20.14
2023-01-15T04:07:34.992Z,20.14
2023-01-15T04:10:02.027Z,20.14
2023-01-15T04:12:28.993Z,20.14
2023-01-15T04:14:56.487Z,20.15
2023-01-15T04:17:22.841Z,20.15
2023-01-15T04:19:49.196Z,20.15
2023-01-15T04:22:15.604Z,20.16
2023-01-15T04:24:41.938Z,20.15
2023-01-15T04:27:08.333Z,20.17
2023-01-15T04:29:34.648Z,20.17
2023-01-15T04:32:01.714Z,20.18
2023-01-15T04:34:28.071Z,20.17
2023-01-15T04:36:54.694Z,20.17
2023-01-15T04:39:21.055Z,20.17
2023-01-15T04:42:05.968Z,20.17
2023-01-15T04:44:32.765Z,20.17
2023-01-15T04:47:00.049Z,20.17
2023-01-15T04:49:26.399Z,20.17
2023-01-15T04:51:52.756Z,20.20
2023-01-15T04:54:19.128Z,20.19
2023-01-15T04:56:46.217Z,20.17
2023-01-15T04:59:12.674Z,20.20
2023-01-15T05:01:39.131Z,20.20
2023-01-15T05:04:05.604Z,20.20
2023-01-15T05:06:32.034Z,20.19
2023-01-15T05:08:58.772Z,20.20
2023-01-15T05:11:25.166Z,20.21
2023-01-15T05:13:51.567Z,20.19
2023-01-15T05:16:18.630Z,20.20
2023-01-15T05:18:45.318Z,20.22
2023-01-15T05:21:15.363Z,20.21
2023-01-15T05:23:41.695Z,20.23
2023-01-15T05:26:08.019Z,20.23
2023-01-15T05:28:34.351Z,20.23
2023-01-15T05:31:05.481Z,20.23
2023-01-15T05:33:31.842Z,20.23
2023-01-15T05:36:01.172Z,20.23
2023-01-15T05:38:27.502Z,20.22
2023-01-15T05:40:53.842Z,20.22
2023-01-15T05:43:20.174Z,20.22
2023-01-15T05:45:46.664Z,20.23
2023-01-15T05:48:12.985Z,20.23
2023-01-15T05:50:39.301Z,20.23
2023-01-15T05:53:06.654Z,20.25
2023-01-15T05:55:32.988Z,20.25
2023-01-15T05:57:59.302Z,20.25
2023-01-15T06:00:25.988Z,20.26
2023-01-15T06:02:52.436Z,20.25
2023-01-15T06:05:20.270Z,20.26
2023-01-15T06:07:49.866Z,20.25
2023-01-15T06:10:17.064Z,20.26
2023-01-15T06:12:43.423Z,20.24
2023-01-15T06:15:10.516Z,20.25
2023-01-15T06:17:36.850Z,20.25
2023-01-15T06:20:03.377Z,20.25
2023-01-15T06:22:29.888Z,20.26
2023-01-15T06:24:56.239Z,20.26
2023-01-15T06:27:22.571Z,20.27
2023-01-15T06:29:48.936Z,20.27
2023-01-15T06:32:15.259Z,20.28
2023-01-15T06:34:43.641Z,20.28
2023-01-15T06:37:10.029Z,20.28
2023-01-15T06:39:36.376Z,20.28
2023-01-15T06:42:29.015Z,20.27
2023-01-15T06:45:13.972Z,20.28
2023-01-15T06:47:40.305Z,20.27
2023-01-15T06:50:06.699Z,20.28
2023-01-15T06:52:33.036Z,20.29
2023-01-15T06:54:59.368Z,20.30
2023-01-15T06:57:25.707Z,20.32
2023-01-15T06:59:52.064Z,20.31
2023-01-15T07:02:18.668Z,20.31
2023-01-15T07:04:45.516Z,20.30
2023-01-15T07:07:11.851Z,20.30
2023-01-15T07:09:38.169Z,20.28
2023-01-15T07:12:04.500Z,20.28
2023-01-15T07:14:31.987Z,20.28
2023-01-15T07:16:59.270Z,20.29
2023-01-15T07:19:26.233Z,20.30
2023-01-15T07:21:52.595Z,20.30
2023-01-15T07:24:18.940Z,20.30
2023-01-15T07:26:45.621Z,20.30
2023-01-15T07:29:12.163Z,20.33
2023-01-15T07:31:38.553Z,20.22
2023-01-15T07:34:05.109Z,20.22
2023-01-15T07:36:31.457Z,20.25
2023-01-15T07:38:57.772Z,20.26
2023-01-15T07:41:42.977Z,20.27
2023-01-15T07:44:29.456Z,20.27
2023-01-15T07:47:14.380Z,20.27
2023-01-15T07:49:46.807Z,20.29
2023-01-15T07:52:13.485Z,20.29
2023-01-15T07:54:39.839Z,20.29
2023-01-15T07:57:06.166Z,20.30
2023-01-15T07:59:32.501Z,20.31
2023-01-15T08:01:59.008Z,20.30
2023-01-15T08:04:25.395Z,20.30
2023-01-15T08:06:51.805Z,20.29
2023-01-15T08:09:18.131Z,20.30
2023-01-15T08:12:02.849Z,20.29
2023-01-15T08:14:48.074Z,20.28
2023-01-15T08:17:14.452Z,20.30
2023-01-15T08:19:40.788Z,20.28
2023-01-15T08:22:07.101Z,20.30
2023-01-15T08:24:33.483Z,20.31
2023-01-15T08:26:59.821Z,20.30
2023-01-15T08:29:26.155Z,20.31
2023-01-15T08:31:52.574Z,20.31
2023-01-15T08:34:19.176Z,20.37
2023-01-15T08:36:45.498Z,20.40
2023-01-15T08:39:11.822Z,20.48
2023-01-15T08:41:38.170Z,20.43
2023-01-15T08:44:04.524Z,20.40
2023-01-15T08:46:30.867Z,20.38
2023-01-15T08:48:57.209Z,20.36
2023-01-15T08:51:23.543Z,20.35
2023-01-15T08:53:49.907Z,20.38
2023-01-15T08:56:16.824Z,20.38
2023-01-15T08:58:43.177Z,20.37
2023-01-15T09:01:09.963Z,20.38
2023-01-15T09:03:36.336Z,20.38
2023-01-15T09:06:02.659Z,20.38
2023-01-15T09:08:29.117Z,20.38
2023-01-15T09:10:59.011Z,20.37
2023-01-15T09:13:25.543Z,20.38
2023-01-15T09:15:51.879Z,20.26
2023-01-15T09:18:20.304Z,20.15
2023-01-15T09:20:47.002Z,20.01
2023-01-15T09:23:13.333Z,19.99
2023-01-15T09:25:39.659Z,20.00
2023-01-15T09:28:05.999Z,19.94
2023-01-15T09:30:32.395Z,19.99
2023-01-15T09:32:58.934Z,20.00
2023-01-15T09:35:25.266Z,19.97
2023-01-15T09:37:52.825Z,19.94
2023-01-15T09:40:32.209Z,20.00
2023-01-15T09:43:00.460Z,20.01
2023-01-15T09:45:28.465Z,19.97
2023-01-15T09:48:10.256Z,19.96
2023-01-15T09:50:42.411Z,19.96
2023-01-15T09:53:28.493Z,19.94
2023-01-15T09:55:54.952Z,18.94
2023-01-15T09:58:33.677Z,19.22
2023-01-15T10:01:00.059Z,19.63
2023-01-15T10:03:35.901Z,19.84
2023-01-15T10:06:08.278Z,19.97
2023-01-15T10:08:35.011Z,20.02
2023-01-15T10:11:03.157Z,20.06
2023-01-15T10:13:41.532Z,20.09
2023-01-15T10:16:08.266Z,20.09
2023-01-15T10:18:35.345Z,19.89
2023-01-15T10:21:10.873Z,19.96
2023-01-15T10:23:58.207Z,20.04
2023-01-15T10:26:31.557Z,20.10
2023-01-15T10:28:59.196Z,20.15
2023-01-15T10:31:37.651Z,20.17
2023-01-15T10:34:22.760Z,20.20
2023-01-15T10:36:51.351Z,20.21
2023-01-15T10:39:21.317Z,20.22
2023-01-15T10:42:16.976Z,20.23
2023-01-15T10:44:52.661Z,20.24
2023-01-15T10:47:28.189Z,20.25
2023-01-15T10:49:54.530Z,20.24
2023-01-15T10:52:25.494Z,20.27
2023-01-15T10:54:54.023Z,20.27
2023-01-15T10:57:20.295Z,20.28
2023-01-15T10:59:55.593Z,20.29
2023-01-15T11:02:30.489Z,20.29
2023-01-15T11:04:56.934Z,20.30
2023-01-15T11:08:02.938Z,20.31
2023-01-15T11:10:28.163Z,20.32
2023-01-15T11:13:14.373Z,20.32
2023-01-15T11:15:59.522Z,20.32
2023-01-15T11:18:47.843Z,20.31
2023-01-15T11:21:18.197Z,20.32
2023-01-15T11:23:44.776Z,20.30
2023-01-15T11:26:16.606Z,20.34
2023-01-15T11:28:46.440Z,20.35
2023-01-15T11:31:12.976Z,20.36
2023-01-15T11:33:39.605Z,20.35
2023-01-15T11:36:07.104Z,20.36
2023-01-15T11:38:43.553Z,20.38
2023-01-15T11:41:19.162Z,20.38
2023-01-15T11:44:19.397Z,20.38
2023-01-15T11:47:04.315Z,20.36
2023-01-15T11:49:49.205Z,20.38
2023-01-15T11:52:21.406Z,20.44
2023-01-15T11:54:49.593Z,20.47
2023-01-15T11:57:25.740Z,20.43
2023-01-15T11:59:52.084Z,20.38
2023-01-15T12:02:24.530Z,20.43
2023-01-15T12:04:54.264Z,20.45
2023-01-15T12:07:24.253Z,20.33
2023-01-15T12:10:11.278Z,20.35
2023-01-15T12:12:52.193Z,20.40
2023-01-15T12:15:18.442Z,20.41
2023-01-15T12:17:49.182Z,20.43
2023-01-15T12:20:34.630Z,20.45
2023-01-15T12:23:14.795Z,20.46
2023-01-15T12:25:43.903Z,20.49
2023-01-15T12:28:17.669Z,20.49
2023-01-15T12:30:43.982Z,20.51
2023-01-15T12:33:29.251Z,20.53
2023-01-15T12:36:01.363Z,20.51
2023-01-15T12:38:35.450Z,20.51
2023-01-15T12:41:08.079Z,20.53
2023-01-15T12:43:53.326Z,20.54
2023-01-15T12:46:20.598Z,20.54
2023-01-15T12:48:51.706Z,20.56
2023-01-15T12:51:21.281Z,20.57
2023-01-15T12:53:52.110Z,20.59
2023-01-15T12:56:37.261Z,20.59
2023-01-15T12:59:07.775Z,20.60
2023-01-15T13:01:34.056Z,20.56
2023-01-15T13:04:17.593Z,20.54
2023-01-15T13:06:48.515Z,20.50
2023-01-15T13:09:19.066Z,20.50
2023-01-15T13:11:45.427Z,20.49
2023-01-15T13:14:14.104Z,20.47
2023-01-15T13:16:49.666Z,20.48
2023-01-15T13:19:15.909Z,20.46
2023-01-15T13:21:42.306Z,20.48
2023-01-15T13:24:27.461Z,20.52
2023-01-15T13:26:57.456Z,20.56
2023-01-15T13:29:36.177Z,20.57
2023-01-15T13:32:03.879Z,20.58
2023-01-15T13:34:49.076Z,20.59
2023-01-15T13:37:34.950Z,20.59
2023-01-15T13:40:03.565Z,20.58
2023-01-15T13:42:32.860Z,20.56
2023-01-15T13:45:00.918Z,20.52
2023-01-15T13:47:28.011Z,20.11
2023-01-15T13:49:55.339Z,20.32
2023-01-15T13:52:26.417Z,20.45
2023-01-15T13:54:52.810Z,20.57
2023-01-15T13:57:22.168Z,20.85
2023-01-15T13:59:50.614Z,21.03
2023-01-15T14:02:23.749Z,21.17
2023-01-15T14:04:50.077Z,21.25
2023-01-15T14:07:35.468Z,21.30
2023-01-15T14:10:22.807Z,21.32
2023-01-15T14:12:49.621Z,21.41
2023-01-15T14:15:18.684Z,21.44
2023-01-15T14:17:47.708Z,21.42
2023-01-15T14:20:33.951Z,21.42
2023-01-15T14:23:19.000Z,21.42
2023-01-15T14:26:04.029Z,21.33
2023-01-15T14:28:53.111Z,21.34
2023-01-15T14:31:37.147Z,21.37
2023-01-15T14:34:11.053Z,21.40
2023-01-15T14:36:40.223Z,21.37
2023-01-15T14:39:07.264Z,21.38
2023-01-15T14:41:54.463Z,21.41
2023-01-15T14:44:29.835Z,21.46
2023-01-15T14:46:58.371Z,21.45
2023-01-15T14:49:28.522Z,21.49
2023-01-15T14:51:54.853Z,21.56
2023-01-15T14:54:21.235Z,21.51
2023-01-15T14:56:55.204Z,21.52
2023-01-15T14:59:38.263Z,21.53
2023-01-15T15:02:23.967Z,21.61
2023-01-15T15:04:54.035Z,21.57
2023-01-15T15:07:22.588Z,21.50
2023-01-15T15:09:50.683Z,21.63
2023-01-15T15:12:49.455Z,21.63
2023-01-15T15:15:24.976Z,21.71
2023-01-15T15:18:09.995Z,21.61
2023-01-15T15:20:42.021Z,21.54
2023-01-15T15:23:10.111Z,21.61
2023-01-15T15:25:38.742Z,21.60
2023-01-15T15:28:06.262Z,21.58
2023-01-15T15:30:33.572Z,21.56
2023-01-15T15:33:00.154Z,21.59
2023-01-15T15:35:27.492Z,21.64
2023-01-15T15:37:53.876Z,21.63
2023-01-15T15:40:20.735Z,21.28
2023-01-15T15:43:19.908Z,20.98
2023-01-15T15:46:11.313Z,21.16
2023-01-15T15:48:45.391Z,21.32
2023-01-15T15:51:23.083Z,21.43
2023-01-15T15:53:49.429Z,21.43
2023-01-15T15:56:15.767Z,21.32
2023-01-15T15:58:42.139Z,21.25
2023-01-15T16:01:11.800Z,21.15
2023-01-15T16:03:44.605Z,21.10
2023-01-15T16:06:17.467Z,21.09
2023-01-15T16:08:43.812Z,21.07
2023-01-15T16:11:11.626Z,21.07
2023-01-15T16:13:44.577Z,21.06
2023-01-15T16:16:10.994Z,21.05
2023-01-15T16:18:40.896Z,21.05
2023-01-15T16:21:07.854Z,21.02
2023-01-15T16:23:34.386Z,21.01
2023-01-15T16:26:02.167Z,21.03
2023-01-15T16:28:32.184Z,21.00
2023-01-15T16:30:59.010Z,21.00
2023-01-15T16:33:25.380Z,21.00
2023-01-15T16:35:58.256Z,20.98
2023-01-15T16:38:24.640Z,20.99
2023-01-15T16:40:50.983Z,20.96
2023-01-15T16:43:19.607Z,20.95
2023-01-15T16:45:57.203Z,20.91
2023-01-15T16:48:29.746Z,20.90
2023-01-15T16:50:56.407Z,20.89
2023-01-15T16:53:30.508Z,20.89
2023-01-15T16:55:57.569Z,20.88
2023-01-15T16:58:39.232Z,20.90
2023-01-15T17:01:25.361Z,20.89
2023-01-15T17:03:52.070Z,20.88
2023-01-15T17:06:20.127Z,20.87
2023-01-15T17:08:49.244Z,20.86
2023-01-15T17:11:24.507Z,20.84
2023-01-15T17:13:51.063Z,20.84
2023-01-15T17:16:18.396Z,20.83
2023-01-15T17:18:44.796Z,20.85
2023-01-15T17:21:22.824Z,20.83
2023-01-15T17:23:49.158Z,20.83
2023-01-15T17:26:16.559Z,20.85
2023-01-15T17:28:42.911Z,20.86
2023-01-15T17:31:12.141Z,20.85
2023-01-15T17:33:38.484Z,20.86
2023-01-15T17:36:04.887Z,20.86
2023-01-15T17:38:31.221Z,20.84
2023-01-15T17:40:58.487Z,20.84
2023-01-15T17:43:25.649Z,20.82
2023-01-15T17:45:52.049Z,20.80
2023-01-15T17:48:18.749Z,20.80
2023-01-15T17:50:45.078Z,20.77
2023-01-15T17:53:11.407Z,20.76
2023-01-15T17:55:56.277Z,20.76
2023-01-15T17:58:41.193Z,20.74
2023-01-15T18:01:30.241Z,20.74
2023-01-15T18:04:15.576Z,20.73
2023-01-15T18:06:43.046Z,20.67
2023-01-15T18:09:09.363Z,20.07
2023-01-15T18:11:35.698Z,20.35
2023-01-15T18:14:02.020Z,20.48
2023-01-15T18:16:28.536Z,20.57
2023-01-15T18:18:54.917Z,20.62
2023-01-15T18:21:21.287Z,20.64
2023-01-15T18:23:47.636Z,20.66
2023-01-15T18:26:13.964Z,20.68
2023-01-15T18:28:40.274Z,20.71
2023-01-15T18:31:06.669Z,20.70
2023-01-15T18:33:33.028Z,20.71
2023-01-15T18:36:03.060Z,20.75
2023-01-15T18:38:29.396Z,20.74
2023-01-15T18:40:55.742Z,20.72
2023-01-15T18:43:40.837Z,20.00
2023-01-15T18:46:25.778Z,20.01
2023-01-15T18:48:52.105Z,20.37
2023-01-15T18:51:18.426Z,20.47
2023-01-15T18:53:44.761Z,20.51
2023-01-15T18:56:11.092Z,20.53
2023-01-15T18:58:37.431Z,20.56
2023-01-15T19:01:07.442Z,20.56
2023-01-15T19:03:33.853Z,20.57
2023-01-15T19:06:07.271Z,20.57
2023-01-15T19:08:33.617Z,20.56
2023-01-15T19:11:00.114Z,20.56
2023-01-15T19:13:26.444Z,20.58
2023-01-15T19:16:11.457Z,20.58
2023-01-15T19:18:52.393Z,20.57
2023-01-15T19:21:20.165Z,20.56
2023-01-15T19:23:46.782Z,20.55
2023-01-15T19:26:13.147Z,20.54
2023-01-15T19:28:39.463Z,20.53
2023-01-15T19:31:27.779Z,20.56
2023-01-15T19:34:13.120Z,20.55
2023-01-15T19:36:44.879Z,20.58
2023-01-15T19:39:11.215Z,20.58
2023-01-15T19:41:56.227Z,20.59
2023-01-15T19:44:41.176Z,20.59
2023-01-15T19:47:28.125Z,20.59
2023-01-15T19:50:13.061Z,20.58
2023-01-15T19:52:41.043Z,20.58
2023-01-15T19:55:08.651Z,20.59
2023-01-15T19:57:34.976Z,20.58
2023-01-15T20:00:01.324Z,20.57
2023-01-15T20:02:27.697Z,20.56
2023-01-15T20:04:54.025Z,20.56
2023-01-15T20:07:20.340Z,20.56
2023-01-15T20:09:46.712Z,20.57
2023-01-15T20:12:31.655Z,20.58
2023-01-15T20:14:57.996Z,20.59
2023-01-15T20:17:24.522Z,20.57
2023-01-15T20:19:50.862Z,20.58
2023-01-15T20:22:17.197Z,20.56
2023-01-15T20:24:44.429Z,20.64
2023-01-15T20:27:11.262Z,20.61
2023-01-15T20:29:37.919Z,20.60
2023-01-15T20:32:04.242Z,20.59
2023-01-15T20:34:32.084Z,20.64
2023-01-15T20:36:58.413Z,20.62
2023-01-15T20:39:24.804Z,20.64
2023-01-15T20:42:10.052Z,20.64
2023-01-15T20:44:54.744Z,20.60
2023-01-15T20:47:46.025Z,20.48
2023-01-15T20:50:15.675Z,20.52
2023-01-15T20:52:48.508Z,20.55
2023-01-15T20:55:14.977Z,20.57
2023-01-15T20:57:41.299Z,20.48
2023-01-15T21:00:08.717Z,20.47
2023-01-15T21:02:35.034Z,20.56
2023-01-15T21:05:01.391Z,20.60
2023-01-15T21:07:27.731Z,20.61
2023-01-15T21:09:54.085Z,20.60
2023-01-15T21:12:20.415Z,20.62
2023-01-15T21:14:46.751Z,20.62
2023-01-15T21:17:13.104Z,20.62
2023-01-15T21:19:39.476Z,20.62
2023-01-15T21:22:05.861Z,20.60
2023-01-15T21:24:32.690Z,20.60
2023-01-15T21:26:59.034Z,20.60
2023-01-15T21:29:25.389Z,20.61
2023-01-15T21:31:52.085Z,20.59
2023-01-15T21:34:18.495Z,20.59
2023-01-15T21:36:44.815Z,20.59
2023-01-15T21:39:14.242Z,20.59
2023-01-15T21:41:59.416Z,20.58
2023-01-15T21:44:31.404Z,20.57
2023-01-15T21:47:01.551Z,20.57
2023-01-15T21:49:28.568Z,20.58
2023-01-15T21:51:54.884Z,20.54
2023-01-15T21:54:21.232Z,20.55
2023-01-15T21:56:47.560Z,20.54
2023-01-15T21:59:13.968Z,20.53
2023-01-15T22:01:40.517Z,20.53
2023-01-15T22:04:06.952Z,20.51
2023-01-15T22:06:33.283Z,20.55
2023-01-15T22:08:59.623Z,20.56
2023-01-15T22:11:43.462Z,20.57
2023-01-15T22:14:15.634Z,20.54
2023-01-15T22:16:41.966Z,20.51
2023-01-15T22:19:08.578Z,20.50
2023-01-15T22:21:35.031Z,20.49
2023-01-15T22:24:04.532Z,20.48
2023-01-15T22:26:30.876Z,20.45
2023-01-15T22:29:00.108Z,20.46
2023-01-15T22:31:26.471Z,20.44
2023-01-15T22:33:52.976Z,20.44
2023-01-15T22:36:19.869Z,20.43
2023-01-15T22:38:47.086Z,20.42
2023-01-15T22:41:13.507Z,20.41
2023-01-15T22:43:39.899Z,20.41
2023-01-15T22:46:10.243Z,20.41
2023-01-15T22:48:36.621Z,20.43
2023-01-15T22:51:03.013Z,20.42
2023-01-15T22:53:29.363Z,20.40
2023-01-15T22:55:56.424Z,20.39
2023-01-15T22:58:22.768Z,20.38
2023-01-15T23:00:52.915Z,20.37
2023-01-15T23:03:19.232Z,20.37
2023-01-15T23:05:45.553Z,20.34
2023-01-15T23:08:11.872Z,20.34
2023-01-15T23:10:38.236Z,20.33
2023-01-15T23:13:04.555Z,20.33
2023-01-15T23:15:30.938Z,20.32
2023-01-15T23:17:57.297Z,20.29
2023-01-15T23:20:23.653Z,20.30
2023-01-15T23:22:49.976Z,20.30
2023-01-15T23:25:16.306Z,20.32
2023-01-15T23:27:42.632Z,20.30
2023-01-15T23:30:09.287Z,20.30
2023-01-15T23:32:35.670Z,20.32
2023-01-15T23:35:02.017Z,20.33
2023-01-15T23:37:28.346Z,20.36
2023-01-15T23:39:54.678Z,20.36
2023-01-15T23:42:40.066Z,20.38
2023-01-15T23:45:26.383Z,20.37
2023-01-15T23:47:52.707Z,20.36
2023-01-15T23:50:19.039Z,20.35
2023-01-15T23:52:45.378Z,20.35
2023-01-15T23:55:11.765Z,20.35
2023-01-15T23:57:38.078Z,20.35
